aviador You're here:

KCKV Decoded Metar

CLARKSVILLE in TN, USA
Report Time2017-11-23 02:52:00
UTC Time2017-11-23 03:44:01
Flight Rules vfr VFR
Wind340° at 07 kt
W.Decomp.*RWY 35: 6.9 kt HW 1.1 kt LCW
RWY 05: 2.5 kt HW 6.5 kt LCW
W.Rank340° ranks 8
Current wind is below 340° avg. (8.1)
Visibility9999 m
Phenomena:N/A
Clouds:N/A
Expected CloudBase > 2,000 ft AGL from Temp-Dew spread
CeilingNone
Temp-1°C (ISA -15)
Dew Point-6°C (69% RH)
AAT-6.2°C
QNH1025 hPa
Density Alt-1,637 ft
Elevation541 ft
Report Wrong Elevation
Raw Report
KCKV 230252Z AUTO 34007KT 10SM CLR M01/M06 A3027 RMK AO2 SLP256
T10061061 53002=

Extra information for KCKV:More info

Metar Taf Metar & Taf Last 4 Metars F.Rules Stats Wind Profile Meteogram Temp Stats Airport Information Weather charts Add Link Nearby VenuesMetar ALERT Operation Metar Decoded Social comments

AIRNAV info for KCKV